This is the latest recevied weather packets stored in our database for station/object KD8BMB. If no packets are shown the sender has not sent any weather packets the latest 1 day(s).
| Time | Temp. | Humidity | Pressure | Rain* | Wind** | Luminosity | Snow |
|---|---|---|---|---|---|---|---|
| 1778012355 | 13.89° C | 55% | 1006.5 hPa | 0 mm | 0.89 m/s, 211° | 244 W/m² | - |
| 1778012052 | 13.89° C | 53% | 1006.7 hPa | 0 mm | 2.68 m/s, 291° | 219 W/m² | - |
| 1778011750 | 13.89° C | 54% | 1006.9 hPa | 0 mm | 2.24 m/s, 208° | 195 W/m² | - |
| 1778011447 | 13.89° C | 54% | 1006.8 hPa | 0 mm | 1.34 m/s, 237° | 206 W/m² | - |
| 1778011142 | 13.89° C | 51% | 1006.4 hPa | 0 mm | 2.24 m/s, 219° | 204 W/m² | - |
| 1778010840 | 13.89° C | 51% | 1006.6 hPa | 0 mm | 1.79 m/s, 253° | 213 W/m² | - |
| 1778010537 | 13.89° C | 52% | 1006.8 hPa | 0 mm | 1.34 m/s, 233° | 225 W/m² | - |
| 1778010234 | 13.89° C | 50% | 1006.8 hPa | 0 mm | 2.68 m/s, 281° | 225 W/m² | - |
| 1778009929 | 13.89° C | 51% | 1006.4 hPa | 0 mm | 0.89 m/s, 354° | 238 W/m² | - |
| 1778009627 | 13.89° C | 52% | 1006.6 hPa | 0 mm | 0.89 m/s, 264° | 278 W/m² | - |
| 1778009324 | 13.89° C | 52% | 1006.5 hPa | 0 mm | 0.89 m/s, 240° | 258 W/m² | - |
| 1778009023 | 13.89° C | 53% | 1006.6 hPa | 0 mm | 2.24 m/s, 230° | 249 W/m² | - |
| 1778008720 | 13.89° C | 54% | 1006.5 hPa | 0 mm | 2.24 m/s, 248° | 284 W/m² | - |
| 1778008418 | 13.89° C | 55% | 1006.8 hPa | 0 mm | 1.34 m/s, 221° | 289 W/m² | - |
| 1778008115 | 14.44° C | 54% | 1006.6 hPa | 0 mm | 2.68 m/s, 266° | 325 W/m² | - |
| 1778007810 | 13.89° C | 55% | 1006.4 hPa | 0 mm | 1.34 m/s, 214° | 332 W/m² | - |
| 1778007506 | 15° C | 58% | 1006.7 hPa | 0 mm | 0.89 m/s, 177° | 282 W/m² | - |
| 1778007202 | 13.89° C | 59% | 1006.6 hPa | 0 mm | 0 m/s | 308 W/m² | - |
| 1778006899 | 13.89° C | 60% | 1006.4 hPa | 0 mm | 0.89 m/s, 224° | 280 W/m² | - |
| 1778006596 | 13.33° C | 61% | 1006.7 hPa | 0 mm | 2.24 m/s, 174° | 265 W/m² | - |
| 1778006293 | 13.33° C | 60% | 1006.5 hPa | 0 mm | 1.34 m/s, 272° | 173 W/m² | - |
| 1778005990 | 13.89° C | 61% | 1006.2 hPa | 0 mm | 0.89 m/s, 261° | 233 W/m² | - |
| 1778005687 | 13.33° C | 62% | 1006.3 hPa | 0 mm | 1.34 m/s, 307° | 269 W/m² | - |
| 1778005383 | 13.33° C | 61% | 1006.3 hPa | 0 mm | 2.24 m/s, 291° | 271 W/m² | - |
| 1778005080 | 13.33° C | 70% | 1006.3 hPa | 0 mm | 0.89 m/s, 254° | 298 W/m² | - |
* Rain latest hour (hover to see other rain measurements)
** Current wind speed in m/s (hover to see current wind gust speed)